Flight Track Log - Related Links

Times and Time Zones

All times are in EDT time to prevent confusion due to time zone crossing. See the VH-FJP flight status page for this flight to view local times or setup timezone preferences in your user account.

Time Position Orientation Groundspeed Altitude Reporting Facility
EDT Latitude Longitude Course Direction KTS MPH feet Rate Location/Type
Wed 06:03:49 AM -34.9114 117.7333 303° West 34,000  Level Aus ATC (Calculated)
Wed 06:04:21 AM -34.9114 117.7333 303° West 34,000 -1,679 Level Aus ATC (Calculated)
Wed 06:04:35 AM -34.9114 117.7333 303° West 34,000 -1,828 Level Aus ATC (Calculated)
Wed 06:05:21 AM -34.9114 117.7333 303° West 34,000 -1,902 Level Aus ATC (Calculated)
Wed 06:06:35 AM -34.8728 117.6569 303° West 34,000 -2,193 Level Aus ATC (Calculated)
Wed 06:07:00 AM -34.8824 117.6759 302° West  Level FlightAware Approximate
Wed 06:08:00 AM -34.8117 117.5362 302° West  Level FlightAware Approximate
Wed 06:09:00 AM -34.7686 117.4512 302° West  Level FlightAware Approximate
Wed 06:10:00 AM -34.7253 117.3663 302° West  Level FlightAware Approximate
Wed 06:10:22 AM -34.6946 117.3271 302° West 253 291 23,000  Level Aus ATC (RADAR)
Wed 06:10:57 AM -34.6732 117.2823 300° West 260 299 24,100 1,938 Climbing Aus ATC (RADAR)
Wed 06:11:27 AM -34.6540 117.2438 301° West 266 306 25,100 1,946 Climbing Aus ATC (RADAR)
Wed 06:12:11 AM -34.6241 117.1871 303° West 266 306 26,500 1,823 Climbing Aus ATC (RADAR)
Wed 06:12:46 AM -34.6009 117.1402 301° West 273 314 27,500 1,714 Climbing Aus ATC (RADAR)
Wed 06:13:21 AM -34.5776 117.0936 301° West 276 318 28,500 1,629 Climbing Aus ATC (RADAR)
Wed 06:13:56 AM -34.5531 117.0463 302° West 282 325 29,400 1,629 Climbing Aus ATC (RADAR)
Wed 06:14:31 AM -34.5288 116.9998 302° West 280 322 30,400 1,543 Climbing Aus ATC (RADAR)
Wed 06:15:06 AM -34.5045 116.9497 300° West 288 331 31,200 1,543 Climbing Aus ATC (RADAR)
Wed 06:15:41 AM -34.4806 116.9003 300° West 289 333 32,200 1,629 Climbing Aus ATC (RADAR)
Wed 06:16:16 AM -34.4565 116.8546 303° West 279 321 33,100 1,350 Climbing Aus ATC (RADAR)
Wed 06:17:01 AM -34.4258 116.7939 301° West 276 318 34,000 675 Climbing Aus ATC (RADAR)
Wed 06:17:36 AM -34.4002 116.7462 303° West 283 326 34,000  Level Aus ATC (RADAR)
Wed 06:18:11 AM -34.3733 116.6951 303° West 299 344 34,000  Level Aus ATC (RADAR)
Wed 06:18:51 AM -34.3424 116.6306 300° West 320 368 34,000  Level Aus ATC (RADAR)
Wed 06:19:51 AM -34.2950 116.5414 303° West 311 358 34,000 58 Level Aus ATC (RADAR)
Wed 06:20:35 AM -34.2593 116.4734 302° West 310 357 34,100 76 Climbing Aus ATC (RADAR)
Wed 06:21:10 AM -34.2315 116.4188 302° West 316 364 34,100  Level Aus ATC (RADAR)
Wed 06:21:40 AM -34.2077 116.3743 303° West 311 358 34,100  Level Aus ATC (RADAR)
Wed 06:22:36 AM -34.1644 116.2881 301° West 320 368 34,100  Level Aus ATC (RADAR)
Wed 06:23:11 AM -34.1365 116.2386 304° West 306 352 34,100  Level Aus ATC (RADAR)
Wed 06:23:56 AM -34.1011 116.1678 301° West 314 361 34,100  Level Aus ATC (RADAR)
Wed 06:24:55 AM -34.0539 116.0791 303° West 306 352 34,100  Level Aus ATC (RADAR)
Wed 06:25:40 AM -34.0191 116.0125 302° West 307 353 34,100  Level Aus ATC (RADAR)
Wed 06:26:10 AM -33.9963 115.9675 302° West 309 356 34,100  Level Aus ATC (RADAR)
Wed 06:26:45 AM -33.9693 115.9173 303° West 300 345 34,100  Level Aus ATC (RADAR)
Wed 06:27:25 AM -33.9391 115.8598 302° West 298 343 34,100  Level Aus ATC (RADAR)
Wed 06:28:25 AM -33.8938 115.7756 303° West 292 336 34,100  Level Aus ATC (RADAR)
Wed 06:29:10 AM -33.8602 115.7125 303° West 292 336 34,100  Level Aus ATC (RADAR)
Wed 06:29:40 AM -33.8379 115.6691 302° West 295 339 34,100  Level Aus ATC (RADAR)
Wed 06:30:15 AM -33.8113 115.6192 303° West 295 339 34,100  Level Aus ATC (RADAR)
Wed 06:30:50 AM -33.7843 115.5679 302° West 299 344 34,100  Level Aus ATC (RADAR)
Wed 06:31:25 AM -33.7572 115.5181 303° West 300 345 34,100  Level Aus ATC (RADAR)
Wed 06:32:00 AM -33.7270 115.4668 305° West 316 364 34,100  Level Aus ATC (RADAR)
Wed 06:32:34 AM -33.6844 115.4336 327° Northwest 328 377 34,100  Level Aus ATC (RADAR)
Wed 06:33:34 AM -33.5936 115.4241 355° North 340 391 34,100  Level Aus ATC (RADAR)
Wed 06:34:15 AM -33.5336 115.4490 19° North 338 389 34,100  Level Aus ATC (RADAR)
Wed 06:34:49 AM -33.4801 115.4657 15° North 341 392 34,100 -1,031 Level Aus ATC (RADAR)
Wed 06:35:19 AM -33.4341 115.4798 14° North 342 394 33,000 -2,400 Descending Aus ATC (RADAR)
Wed 06:35:54 AM -33.3806 115.4986 16° North 347 399 31,500 -2,769 Descending Aus ATC (RADAR)
Wed 06:36:24 AM -33.3342 115.5151 17° North 344 396 30,000 -3,046 Descending Aus ATC (RADAR)
Wed 06:36:59 AM -33.2803 115.5340 16° North 340 391 28,200 -2,824 Descending Aus ATC (RADAR)
Wed 06:37:49 AM -33.2036 115.5565 14° North 339 390 26,000 -2,475 Descending Aus ATC (RADAR)
Wed 06:38:19 AM -33.1597 115.5702 15° North 330 380 24,900 -2,182 Descending Aus ATC (RADAR)
Wed 06:38:55 AM -33.1103 115.5852 14° North 319 367 23,600 -2,229 Descending Aus ATC (RADAR)
Wed 06:39:29 AM -33.0633 115.6023 17° North 302 348 22,300 -2,174 Descending Aus ATC (RADAR)
Wed 06:40:04 AM -33.0169 115.6161 14° North 290 334 21,100 -2,057 Descending Aus ATC (RADAR)
Wed 06:40:39 AM -32.9719 115.6311 16° North 286 329 19,900 -2,031 Descending Aus ATC (RADAR)
Wed 06:41:09 AM -32.9341 115.6433 15° North 281 323 18,900 -1,938 Descending Aus ATC (RADAR)
Wed 06:41:44 AM -32.8906 115.6565 14° North 278 320 17,800 -1,971 Descending Aus ATC (RADAR)
Wed 06:42:19 AM -32.8485 115.6710 16° North 273 314 16,600 -1,920 Descending Aus ATC (RADAR)
Wed 06:42:59 AM -32.8023 115.6863 16° North 256 295 15,400 -1,800 Descending Aus ATC (RADAR)
Wed 06:43:29 AM -32.7686 115.6973 15° North 249 287 14,500 -1,714 Descending Aus ATC (RADAR)
Wed 06:44:09 AM -32.7245 115.7099 13° North 243 280 13,400 -1,629 Descending Aus ATC (RADAR)
Wed 06:44:39 AM -32.6929 115.7209 16° North 238 274 12,600 -1,662 Descending Aus ATC (RADAR)
Wed 06:45:14 AM -32.6564 115.7333 16° North 235 270 11,600 -1,714 Descending Aus ATC (RADAR)
Wed 06:45:49 AM -32.6210 115.7457 16° North 230 265 10,600 -1,662 Descending Aus ATC (RADAR)
Wed 06:46:19 AM -32.5911 115.7544 14° North 218 251 9,800 -1,662 Descending Aus ATC (RADAR)
Wed 06:46:54 AM -32.5561 115.7619 10° North 216 249 8,800 -1,680 Descending Aus ATC (RADAR)
Wed 06:47:34 AM -32.5171 115.7722 13° North 216 249 7,700 -1,600 Descending Aus ATC (RADAR)
Wed 06:48:09 AM -32.4827 115.7832 15° North 221 254 6,800 -1,543 Descending Aus ATC (RADAR)
Wed 06:48:44 AM -32.4461 115.7919 11° North 231 266 5,900 -1,543 Descending Aus ATC (RADAR)
Wed 06:49:19 AM -32.4094 115.8026 14° North 232 267 5,000 -1,333 Descending Aus ATC (RADAR)
Wed 06:50:23 AM -32.3429 115.8214 13° North 220 253 3,700 -1,152 Descending Aus ATC (RADAR)
Wed 06:50:58 AM -32.3089 115.8305 13° North 213 245 3,100 -1,015 Descending Aus ATC (RADAR)
Wed 06:51:28 AM -32.2800 115.8381 13° North 213 245 2,600 -1,015 Descending Aus ATC (RADAR)
Wed 06:52:03 AM -32.2471 115.8474 13° North 210 242 2,000 -600 Descending Aus ATC (RADAR)
Wed 06:52:48 AM -32.2069 115.8587 13° North 193 222 1,800 -171 Descending Aus ATC (RADAR)
Wed 06:53:48 AM -32.1641 115.8662 North 144 166 1,700 -180 Descending Aus ATC (RADAR)
Wed 06:54:28 AM -32.1405 115.8750 17° North 140 161 1,500 -320 Descending Aus ATC (RADAR)
Wed 06:55:03 AM -32.1289 115.9017 63° Northeast 153 176 1,300 -429 Descending Aus ATC (RADAR)
Wed 06:55:38 AM -32.1160 115.9286 60° Northeast 157 181 1,000 -343 Descending Aus ATC (RADAR)
Wed 06:56:13 AM -32.0982 115.9357 19° North 134 154 900 -171 Descending Aus ATC (RADAR)
Wed 06:56:48 AM -32.0827 115.9225 324° Northwest 113 130 800 -277 Descending Aus ATC (RADAR)
Wed 06:57:18 AM -32.0814 115.9058 275° West 109 125 600 -560 Descending Aus ATC (RADAR)
Wed 06:58:03 AM -32.0943 115.8837 236° Southwest 107 123 100 -667 Descending Aus ATC (RADAR)

Login

Don't have an account? Register now (free) for customized features, flight alerts, and more!